Time;durP1;ratioP1;P1;durP2;ratioP2;P2;SDS_P1;SDS_P2;PMS_P1;PMS_P2;Temp;Humidity;BMP_temperature;BMP_pressure;BME280_temperature;BME280_humidity;BME280_pressure;Samples;Min_cycle;Max_cycle;Signal;HPM_P1;HPM_P2
2022/12/30 00:00:19;;;;;;;61.43;30.53;;;;;;;1.37;74.42;100980.48;123756;1099;104350;-77
2022/12/30 00:03:10;;;;;;;74.80;28.97;;;;;;;1.34;74.54;100985.41;123708;1099;104546;-78
2022/12/30 00:05:42;;;;;;;62.27;27.87;;;;;;;1.31;74.31;100991.25;123609;1099;104261;-78
2022/12/30 00:10:58;;;;;;;54.13;26.60;;;;;;;1.29;74.36;100990.20;123459;1099;104322;-78
2022/12/30 00:34:02;;;;;;;58.67;26.83;;;;;;;1.14;74.89;100997.64;123510;1099;104354;-77
2022/12/30 00:36:34;;;;;;;67.03;28.33;;;;;;;1.12;74.42;100987.95;123578;1099;104328;-77
2022/12/30 00:39:06;;;;;;;56.63;26.73;;;;;;;1.11;75.00;100996.47;123608;1099;104406;-78
2022/12/30 00:44:29;;;;;;;54.63;26.40;;;;;;;1.02;75.03;101006.98;123567;1099;104328;-77
2022/12/30 00:47:01;;;;;;;58.73;27.00;;;;;;;1.03;75.40;100993.29;123562;1099;104249;-77
2022/12/30 00:57:59;;;;;;;51.37;26.97;;;;;;;0.95;75.11;100982.33;123590;1099;117899;-77
2022/12/30 01:00:30;;;;;;;53.30;26.20;;;;;;;0.94;75.00;100977.03;123626;1099;104647;-77
2022/12/30 01:03:02;;;;;;;55.90;27.77;;;;;;;0.93;75.14;100980.38;123623;1099;104366;-77
2022/12/30 01:05:33;;;;;;;50.63;25.47;;;;;;;0.90;75.17;100981.02;123563;1099;104366;-77
2022/12/30 01:08:05;;;;;;;49.77;26.60;;;;;;;0.90;75.24;100981.02;123570;1099;104307;-77
2022/12/30 01:10:38;;;;;;;52.60;25.30;;;;;;;0.87;75.38;100985.94;123541;1099;104258;-77
2022/12/30 01:13:09;;;;;;;56.17;25.83;;;;;;;0.87;75.20;100985.94;123610;1098;104693;-77
2022/12/30 01:15:41;;;;;;;52.40;25.17;;;;;;;0.86;75.38;100974.71;123554;1099;104402;-77
2022/12/30 01:18:12;;;;;;;52.97;24.37;;;;;;;0.87;75.45;100976.53;123541;1099;104284;-77
2022/12/30 01:20:43;;;;;;;51.77;25.83;;;;;;;0.91;75.42;100977.67;123584;1099;104310;-77
2022/12/30 01:23:14;;;;;;;52.70;25.77;;;;;;;0.91;75.56;100969.92;123547;1099;104399;-78
2022/12/30 01:25:45;;;;;;;48.40;24.63;;;;;;;0.90;75.53;100965.52;123599;1099;104371;-77
2022/12/30 01:28:16;;;;;;;46.00;23.60;;;;;;;0.89;75.41;100967.21;123541;1099;104332;-78
2022/12/30 01:30:48;;;;;;;54.20;25.37;;;;;;;0.87;75.26;100962.69;123541;1099;104321;-78
2022/12/30 01:33:19;;;;;;;55.77;26.07;;;;;;;0.86;75.44;100961.79;123662;1099;104647;-77
2022/12/30 01:35:50;;;;;;;49.83;25.13;;;;;;;0.85;75.79;100961.66;123574;1099;104794;-77
2022/12/30 01:38:21;;;;;;;52.00;25.07;;;;;;;0.85;75.59;100962.56;123397;1099;104386;-77
2022/12/30 01:40:52;;;;;;;52.27;24.53;;;;;;;0.83;75.58;100955.48;123251;1099;104359;-77
2022/12/30 01:43:46;;;;;;;55.10;24.73;;;;;;;0.81;75.49;100952.77;123423;1099;104262;-77
2022/12/30 01:46:23;;;;;;;51.57;25.10;;;;;;;0.77;75.56;100950.70;123614;1099;104249;-77
2022/12/30 01:48:57;;;;;;;56.00;25.40;;;;;;;0.74;75.62;100944.39;123537;1099;118462;-77
2022/12/30 01:51:32;;;;;;;58.27;26.33;;;;;;;0.73;75.70;100942.58;123606;1099;104303;-78
2022/12/30 01:54:04;;;;;;;53.37;26.07;;;;;;;0.72;75.52;100939.10;123548;1099;104253;-77
2022/12/30 01:56:39;;;;;;;50.57;24.90;;;;;;;0.69;75.69;100924.24;123522;1099;104258;-77
2022/12/30 01:59:15;;;;;;;49.83;24.83;;;;;;;0.69;75.66;100944.02;123597;1099;104246;-77
2022/12/30 02:01:48;;;;;;;52.70;24.83;;;;;;;0.68;75.40;100945.67;123645;1099;104428;-77
2022/12/30 02:04:22;;;;;;;54.93;26.47;;;;;;;0.65;76.10;100941.95;123596;1099;104998;-77
2022/12/30 02:06:55;;;;;;;;;;;;;;;0.62;76.24;100931.36;123732;1098;104721;-77
2022/12/30 02:09:27;;;;;;;51.70;25.03;;;;;;;0.56;75.43;100944.66;123387;1099;109973;-77
2022/12/30 02:12:00;;;;;;;53.33;25.27;;;;;;;0.52;75.51;100947.78;123484;1099;104304;-78
2022/12/30 02:14:35;;;;;;;50.20;25.13;;;;;;;0.45;76.25;100940.30;123624;1099;104367;-77
2022/12/30 02:17:12;;;;;;;50.80;23.60;;;;;;;0.44;76.09;100941.09;123572;1099;104288;-77
2022/12/30 02:20:18;;;;;;;49.17;25.60;;;;;;;0.41;76.27;100944.31;123614;1099;104354;-77
2022/12/30 02:23:10;;;;;;;53.10;25.07;;;;;;;0.37;75.98;100942.23;123662;1099;104326;-77
2022/12/30 02:26:02;;;;;;;55.33;25.80;;;;;;;0.36;76.11;100943.03;123615;1099;104297;-77
2022/12/30 02:29:02;;;;;;;53.20;26.40;;;;;;;0.37;76.02;100941.34;123418;1099;104389;-77
2022/12/30 02:31:51;;;;;;;56.37;28.00;;;;;;;0.40;76.36;100945.08;123266;1099;104696;-77
2022/12/30 02:34:32;;;;;;;58.27;28.87;;;;;;;0.39;75.81;100940.71;123236;1099;104396;-77
2022/12/30 02:37:15;;;;;;;57.40;28.80;;;;;;;0.38;76.14;100941.48;123421;1099;104357;-78
2022/12/30 02:39:51;;;;;;;57.45;29.65;;;;;;;0.39;76.17;100947.53;123583;1099;104248;-77
2022/12/30 02:45:28;;;;;;;49.55;24.90;;;;;;;0.35;76.32;100942.11;123540;1099;104321;-77
2022/12/30 02:48:05;;;;;;;52.73;27.13;;;;;;;0.30;76.77;100947.69;123589;1099;104254;-77
2022/12/30 02:53:31;;;;;;;53.67;26.43;;;;;;;0.18;75.92;100943.28;123405;1099;104293;-77
2022/12/30 02:56:03;;;;;;;57.50;27.80;;;;;;;0.13;76.63;100935.95;123540;1099;104363;-77
2022/12/30 02:58:37;;;;;;;56.10;27.80;;;;;;;0.10;76.91;100946.90;123482;1099;104229;-77
2022/12/30 03:04:12;;;;;;;53.33;27.30;;;;;;;0.07;76.74;100948.33;123460;1099;104415;-77
2022/12/30 03:07:05;;;;;;;57.70;29.10;;;;;;;0.09;76.43;100951.93;123262;1099;104226;-77
2022/12/30 03:12:51;;;;;;;58.63;29.53;;;;;;;0.07;76.87;100943.16;123296;1099;104217;-77
2022/12/30 03:15:29;;;;;;;63.67;30.77;;;;;;;0.08;76.29;100943.30;123626;1099;104274;-77
2022/12/30 03:18:01;;;;;;;59.43;29.57;;;;;;;0.09;77.05;100941.61;123584;1099;104348;-77
2022/12/30 03:20:33;;;;;;;58.23;30.03;;;;;;;0.09;76.55;100942.50;123573;1099;104297;-77
2022/12/30 03:28:48;;;;;;;56.73;27.87;;;;;;;0.07;77.21;100963.81;123460;1099;104326;-77
2022/12/30 03:31:21;;;;;;;59.13;28.07;;;;;;;0.02;76.49;100971.16;123792;1099;110747;-77
2022/12/30 03:33:52;;;;;;;56.57;28.00;;;;;;;-0.04;77.16;100970.64;123648;1099;104318;-77
2022/12/30 03:36:28;;;;;;;57.77;29.77;;;;;;;-0.04;76.51;100968.05;123512;1099;104357;-77
2022/12/30 03:39:03;;;;;;;58.23;30.80;;;;;;;-0.03;76.84;100965.61;123553;1099;104303;-77
2022/12/30 03:41:36;;;;;;;66.63;31.43;;;;;;;-0.03;77.33;100965.61;123477;1099;104255;-77
2022/12/30 03:44:08;;;;;;;64.17;31.67;;;;;;;-0.04;76.95;100973.22;123146;1098;104179;-77
2022/12/30 03:46:44;;;;;;;65.20;32.17;;;;;;;-0.05;76.78;100979.14;123339;1099;104226;-77
2022/12/30 03:49:17;;;;;;;68.33;31.53;;;;;;;-0.06;76.71;100970.50;123495;1099;104912;-77
2022/12/30 03:51:48;;;;;;;64.37;32.07;;;;;;;-0.07;76.48;100970.38;123364;1099;108384;-77
2022/12/30 03:54:19;;;;;;;68.90;33.20;;;;;;;-0.08;77.32;100953.08;123549;1099;104255;-77
2022/12/30 03:56:50;;;;;;;62.93;32.40;;;;;;;-0.10;76.49;100955.52;123405;1099;104255;-77
2022/12/30 03:59:22;;;;;;;61.87;30.40;;;;;;;-0.11;76.54;100957.97;123452;1099;104379;-78
2022/12/30 04:01:53;;;;;;;62.37;32.33;;;;;;;-0.11;77.00;100966.64;123316;1099;104255;-77
2022/12/30 04:04:25;;;;;;;67.70;32.53;;;;;;;-0.13;76.78;100969.84;123464;1099;104254;-77
2022/12/30 04:06:56;;;;;;;61.30;30.17;;;;;;;-0.17;77.30;100958.38;123372;1098;104280;-77
2022/12/30 04:09:27;;;;;;;59.90;29.60;;;;;;;-0.24;76.90;100963.77;123464;1098;104325;-78
2022/12/30 04:11:58;;;;;;;63.83;30.53;;;;;;;-0.28;76.55;100978.08;123237;1099;105518;-77
2022/12/30 04:14:30;;;;;;;60.47;30.27;;;;;;;-0.31;76.73;100969.16;123126;1099;104188;-77
2022/12/30 04:17:01;;;;;;;60.00;30.45;;;;;;;-0.30;77.04;100970.97;123367;1099;104313;-77
2022/12/30 04:19:32;;;;;;;62.50;31.50;;;;;;;-0.30;76.98;100965.81;123442;1099;104246;-77
2022/12/30 04:22:03;;;;;;;68.13;33.43;;;;;;;-0.27;77.05;100978.97;123481;1099;104179;-77
2022/12/30 04:24:35;;;;;;;70.60;34.80;;;;;;;-0.31;76.90;100975.23;123492;1098;104351;-78
2022/12/30 04:27:06;;;;;;;70.90;35.27;;;;;;;-0.33;76.67;100981.91;123538;1099;104322;-77
2022/12/30 04:29:37;;;;;;;75.90;35.83;;;;;;;-0.34;77.81;100982.70;123489;1099;104274;-78
2022/12/30 04:32:08;;;;;;;65.63;33.77;;;;;;;-0.32;77.00;100982.84;123464;1099;105761;-76
2022/12/30 04:34:39;;;;;;;71.07;35.97;;;;;;;-0.34;76.96;100977.55;123232;1099;104306;-78
2022/12/30 04:37:11;;;;;;;71.10;37.20;;;;;;;-0.32;77.18;100967.37;123221;1098;104334;-77
2022/12/30 04:39:42;;;;;;;75.20;35.53;;;;;;;-0.31;76.79;100971.73;123307;1099;104395;-78
2022/12/30 04:42:13;;;;;;;70.80;36.40;;;;;;;-0.34;77.00;100962.08;123508;1099;104347;-79
2022/12/30 04:44:44;;;;;;;68.95;35.00;;;;;;;-0.34;77.08;100969.81;123663;1099;104379;-76
2022/12/30 04:47:16;;;;;;;67.37;35.00;;;;;;;-0.37;77.64;100964.39;123600;1099;104290;-77
2022/12/30 04:49:47;;;;;;;73.90;35.77;;;;;;;-0.42;77.23;100965.64;123595;1099;104286;-78
2022/12/30 04:52:18;;;;;;;69.43;35.13;;;;;;;-0.48;76.98;100963.45;123245;1099;104727;-78
2022/12/30 04:54:49;;;;;;;73.03;37.33;;;;;;;-0.55;77.33;100969.77;123545;1099;104354;-77
2022/12/30 04:57:20;;;;;;;79.33;37.27;;;;;;;-0.61;77.27;100976.03;123483;1098;104261;-77
2022/12/30 04:59:52;;;;;;;75.57;37.90;;;;;;;-0.68;77.13;100979.75;123516;1099;104303;-76
2022/12/30 05:02:23;;;;;;;73.80;38.53;;;;;;;-0.70;77.22;100975.22;123447;1099;104248;-77
2022/12/30 05:04:54;;;;;;;76.17;38.20;;;;;;;-0.70;77.30;100977.80;123421;1098;104405;-77
2022/12/30 05:07:26;;;;;;;77.43;39.63;;;;;;;-0.70;77.29;100972.64;123383;1099;104318;-77
2022/12/30 05:09:57;;;;;;;77.30;40.10;;;;;;;-0.68;77.57;100974.59;123433;1099;104347;-77
2022/12/30 05:12:28;;;;;;;81.95;39.20;;;;;;;-0.67;77.48;100975.48;123444;1099;104297;-77
2022/12/30 05:14:59;;;;;;;80.93;38.93;;;;;;;-0.67;77.71;100972.91;123388;1099;104252;-76
2022/12/30 05:17:31;;;;;;;79.93;40.20;;;;;;;-0.66;77.19;100974.73;123287;1099;104408;-77
2022/12/30 05:20:02;;;;;;;78.43;40.23;;;;;;;-0.67;76.76;100971.27;123380;1098;104204;-76
2022/12/30 05:22:33;;;;;;;80.30;40.90;;;;;;;-0.70;77.85;100972.64;123256;1099;104293;-75
2022/12/30 05:27:53;;;;;;;85.73;43.03;;;;;;;-0.73;77.26;100976.77;123431;1099;104194;-75
2022/12/30 05:30:25;;;;;;;85.03;42.80;;;;;;;-0.74;76.93;100968.91;123538;1099;104274;-76
2022/12/30 05:32:56;;;;;;;88.60;43.70;;;;;;;-0.75;77.98;100975.73;123502;1099;104357;-75
2022/12/30 05:35:28;;;;;;;91.30;46.83;;;;;;;-0.74;77.44;100981.79;123589;1099;104277;-75
2022/12/30 05:37:59;;;;;;;89.17;49.40;;;;;;;-0.74;77.08;100969.80;123417;1099;104765;-76
2022/12/30 05:40:30;;;;;;;94.90;50.25;;;;;;;-0.71;77.91;100979.48;123546;1099;104299;-75
2022/12/30 05:43:02;;;;;;;98.37;49.87;;;;;;;-0.67;77.16;100980.64;123582;1099;104255;-76
2022/12/30 05:45:33;;;;;;;94.57;49.47;;;;;;;-0.65;77.84;100989.44;123811;1099;102485;-75
2022/12/30 05:48:05;;;;;;;98.83;49.47;;;;;;;-0.64;77.95;100981.84;123476;1099;104319;-74
2022/12/30 05:50:36;;;;;;;91.70;45.87;;;;;;;-0.62;77.78;100981.98;123712;1099;104249;-75
2022/12/30 05:53:07;;;;;;;90.17;45.97;;;;;;;-0.62;77.91;100988.03;123877;1099;104261;-75
2022/12/30 05:55:38;;;;;;;92.13;48.03;;;;;;;-0.61;78.13;100983.77;123666;1099;104393;-76
2022/12/30 05:58:10;;;;;;;92.73;46.73;;;;;;;-0.62;77.47;100987.13;123527;1099;104316;-75
2022/12/30 06:00:42;;;;;;;87.37;45.50;;;;;;;-0.60;77.87;100993.31;123815;1099;104248;-76
2022/12/30 06:03:13;;;;;;;89.23;44.50;;;;;;;-0.56;77.77;101001.45;123743;1099;104233;-78
2022/12/30 06:05:44;;;;;;;93.80;45.43;;;;;;;-0.49;78.02;100995.16;123844;1099;104297;-76
2022/12/30 06:08:16;;;;;;;94.53;45.33;;;;;;;-0.43;78.59;101000.84;123877;1099;104248;-76
2022/12/30 06:10:47;;;;;;;83.50;43.80;;;;;;;-0.37;78.66;100996.23;124031;1099;104277;-77
2022/12/30 06:13:19;;;;;;;84.53;44.07;;;;;;;-0.30;78.40;101002.81;123856;1099;104242;-78
2022/12/30 06:15:50;;;;;;;94.13;45.60;;;;;;;-0.26;78.34;100994.58;123889;1098;104322;-76
2022/12/30 06:18:21;;;;;;;99.40;48.50;;;;;;;-0.20;78.84;100987.38;123618;1098;104319;-76
2022/12/30 06:20:53;;;;;;;99.60;49.00;;;;;;;-0.14;78.10;100994.75;123895;1099;104363;-76
2022/12/30 06:23:25;;;;;;;102.13;49.57;;;;;;;-0.13;78.22;100996.53;124065;1099;102800;-76
2022/12/30 06:25:58;;;;;;;111.43;51.77;;;;;;;-0.12;78.41;100998.36;124272;1099;104185;-75
2022/12/30 06:28:31;;;;;;;102.50;49.90;;;;;;;-0.07;78.56;101001.33;124519;1099;102246;-77
2022/12/30 06:31:03;;;;;;;106.58;49.25;;;;;;;0.01;78.83;100995.14;124419;1099;104322;-78
2022/12/30 06:33:34;;;;;;;97.43;49.50;;;;;;;0.11;78.66;100992.59;124558;1099;104251;-78
2022/12/30 06:36:06;;;;;;;107.27;49.33;;;;;;;0.22;78.09;101001.25;124398;1099;104240;-77
2022/12/30 06:38:38;;;;;;;99.73;50.43;;;;;;;0.32;78.48;101003.81;124034;1099;104307;-76
2022/12/30 06:41:09;;;;;;;106.93;50.43;;;;;;;0.36;78.56;101007.58;124132;1099;103130;-78
2022/12/30 06:43:41;;;;;;;100.43;49.10;;;;;;;0.39;78.68;101007.84;124556;1099;104248;-81
2022/12/30 06:46:12;;;;;;;92.27;46.87;;;;;;;0.42;78.29;101021.01;124844;1099;104721;-78
2022/12/30 06:48:44;;;;;;;96.77;47.20;;;;;;;0.48;78.35;101010.27;124923;1099;103010;-79
2022/12/30 06:51:15;;;;;;;86.30;44.53;;;;;;;0.48;78.17;101018.94;124746;1099;104399;-81
2022/12/30 06:53:48;;;;;;;90.10;45.53;;;;;;;0.47;78.05;101018.81;124742;1099;102574;-80
2022/12/30 06:56:20;;;;;;;99.83;48.70;;;;;;;0.48;78.15;101020.59;124944;1099;104322;-79
2022/12/30 06:58:53;;;;;;;105.17;47.87;;;;;;;0.51;78.24;101026.02;124775;1099;104121;-80
2022/12/30 07:01:25;;;;;;;102.37;48.63;;;;;;;0.54;78.49;101027.17;124343;1099;104254;-80
2022/12/30 07:03:56;;;;;;;94.83;47.77;;;;;;;0.61;78.61;101027.69;124825;1099;104326;-80
2022/12/30 07:06:27;;;;;;;90.93;47.27;;;;;;;0.65;78.37;101033.23;124541;1099;104229;-80
2022/12/30 07:09:01;;;;;;;99.60;48.10;;;;;;;0.75;78.58;101023.67;124979;1099;104310;-81
2022/12/30 07:11:33;;;;;;;97.07;48.83;;;;;;;0.80;78.36;101035.32;124836;1099;102107;-80
2022/12/30 07:14:05;;;;;;;97.80;49.80;;;;;;;0.81;78.50;101039.69;124856;1099;104226;-81
2022/12/30 07:16:39;;;;;;;107.03;50.60;;;;;;;0.79;78.44;101043.84;125320;1099;103713;-79
2022/12/30 07:19:11;;;;;;;93.77;47.87;;;;;;;0.78;78.70;101037.78;125349;1099;104185;-80
2022/12/30 07:21:42;;;;;;;87.63;45.83;;;;;;;0.81;78.44;101035.45;125295;1099;102696;-78
2022/12/30 07:24:18;;;;;;;107.97;58.00;;;;;;;0.75;77.81;101046.92;125135;1098;104294;-79
2022/12/30 07:26:50;;;;;;;110.63;55.93;;;;;;;0.82;78.48;101038.92;125003;1099;104363;-80
2022/12/30 07:29:23;;;;;;;97.30;49.40;;;;;;;0.89;77.84;101047.31;124947;1099;102636;-79
2022/12/30 07:31:54;;;;;;;89.77;47.80;;;;;;;0.99;78.63;101056.72;124831;1099;102214;-79
2022/12/30 07:34:27;;;;;;;90.80;48.60;;;;;;;1.11;78.42;101053.33;125047;1099;102780;-79
2022/12/30 07:36:59;;;;;;;94.53;49.47;;;;;;;1.19;78.44;101057.48;124649;1099;103470;-80
2022/12/30 07:39:30;;;;;;;111.43;63.27;;;;;;;1.25;78.39;101053.70;125083;1099;104172;-80
2022/12/30 07:42:02;;;;;;;118.20;64.37;;;;;;;1.32;78.29;101051.61;125171;1098;102381;-81
2022/12/30 07:44:37;;;;;;;97.53;50.70;;;;;;;1.36;78.48;101051.98;125157;1099;102344;-80
2022/12/30 07:47:11;;;;;;;96.77;49.97;;;;;;;1.40;78.68;101043.71;125097;1099;104277;-81
2022/12/30 07:49:42;;;;;;;95.60;48.83;;;;;;;1.47;78.15;101041.63;124882;1099;104227;-81
2022/12/30 07:52:15;;;;;;;98.47;47.93;;;;;;;1.59;78.63;101039.99;124765;1099;104360;-80
2022/12/30 07:54:46;;;;;;;95.67;50.63;;;;;;;1.69;78.12;101031.30;125228;1099;104233;-81
2022/12/30 07:57:18;;;;;;;99.60;52.13;;;;;;;1.83;78.38;101034.99;124823;1099;104259;-80
2022/12/30 07:59:52;;;;;;;98.33;50.80;;;;;;;1.96;78.46;101037.74;124809;1099;104225;-80
2022/12/30 08:02:24;;;;;;;97.10;52.03;;;;;;;2.07;78.79;101033.41;125449;1099;104277;-80
2022/12/30 08:04:55;;;;;;;99.87;52.23;;;;;;;2.22;78.59;101036.30;125182;1099;104220;-80
2022/12/30 08:07:27;;;;;;;106.95;54.70;;;;;;;2.32;78.19;101036.20;124732;1102;103276;-75
2022/12/30 08:09:58;;;;;;;98.57;53.60;;;;;;;2.38;78.57;101041.86;124948;1098;104223;-78
2022/12/30 08:12:30;;;;;;;104.37;57.47;;;;;;;2.46;78.96;101039.87;124782;1100;102983;-79
2022/12/30 08:15:01;;;;;;;90.57;49.23;;;;;;;2.59;78.35;101034.84;125156;1099;103188;-78
2022/12/30 08:17:34;;;;;;;95.37;50.40;;;;;;;2.74;78.74;101040.27;124839;1098;104284;-79
2022/12/30 08:20:09;;;;;;;98.07;49.53;;;;;;;2.86;78.58;101040.30;125026;1099;104248;-78
2022/12/30 08:22:41;;;;;;;98.43;52.73;;;;;;;2.92;78.11;101051.14;126510;1098;102870;-78
2022/12/30 08:25:15;;;;;;;107.83;57.83;;;;;;;3.04;78.34;101046.87;126479;1099;102086;-77
2022/12/30 08:27:47;;;;;;;103.07;55.37;;;;;;;3.18;78.16;101039.19;126605;1098;102860;-80
2022/12/30 08:30:19;;;;;;;101.23;54.70;;;;;;;3.29;78.17;101043.50;126451;1099;102751;-79
2022/12/30 08:32:50;;;;;;;112.23;56.93;;;;;;;3.44;78.20;101037.63;126535;1098;101776;-78
2022/12/30 08:35:22;;;;;;;105.70;59.43;;;;;;;3.57;78.71;101029.95;126003;1102;102160;-78
2022/12/30 08:37:53;;;;;;;102.67;54.93;;;;;;;3.68;78.64;101031.62;125050;1099;104243;-79
2022/12/30 08:40:25;;;;;;;112.00;60.87;;;;;;;3.74;78.30;101026.86;124683;1099;104162;-78
2022/12/30 08:43:02;;;;;;;115.57;62.03;;;;;;;3.76;78.01;101024.38;124713;1099;104193;-78
2022/12/30 08:45:38;;;;;;;116.70;60.63;;;;;;;3.78;77.67;101015.89;124582;1100;104216;-78
2022/12/30 08:48:09;;;;;;;122.83;66.50;;;;;;;3.81;78.47;101020.41;125004;1099;104251;-78
2022/12/30 08:50:42;;;;;;;118.30;64.73;;;;;;;3.90;78.25;101017.57;125039;1098;103234;-79
2022/12/30 08:53:13;;;;;;;112.77;60.50;;;;;;;3.95;78.54;101009.29;125115;1099;104835;-78
2022/12/30 08:55:44;;;;;;;109.30;57.87;;;;;;;4.03;77.83;101019.33;125069;1098;104274;-80
2022/12/30 08:58:17;;;;;;;107.53;55.57;;;;;;;4.11;77.87;101007.77;125217;1099;104224;-79
2022/12/30 09:03:53;;;;;;;101.33;55.17;;;;;;;4.20;77.81;101013.61;126062;1099;102227;-78
2022/12/30 09:06:26;;;;;;;96.77;53.63;;;;;;;4.19;78.16;100991.05;125945;1099;102681;-78
2022/12/30 09:09:00;;;;;;;101.20;55.07;;;;;;;4.40;77.93;100993.30;126150;1099;102123;-77
2022/12/30 09:11:34;;;;;;;100.47;52.35;;;;;;;4.54;77.74;100991.65;126863;1099;101862;-78
2022/12/30 09:14:07;;;;;;;107.87;53.90;;;;;;;4.67;78.50;100992.58;126947;1099;101866;-78
2022/12/30 09:16:39;;;;;;;110.30;54.23;;;;;;;4.84;78.43;100992.79;126853;1098;102134;-80
2022/12/30 09:19:10;;;;;;;114.00;55.77;;;;;;;5.01;78.18;100980.91;126134;1099;103123;-77
2022/12/30 09:21:44;;;;;;;104.83;54.63;;;;;;;5.18;77.93;100980.30;126367;1099;102082;-76
2022/12/30 09:24:16;;;;;;;106.03;57.40;;;;;;;5.29;77.71;100982.70;126013;1099;101800;-75
2022/12/30 09:26:48;;;;;;;110.80;60.50;;;;;;;5.43;77.77;100976.67;126025;1099;102228;-79
2022/12/30 09:29:20;;;;;;;104.30;54.57;;;;;;;5.64;77.79;100977.16;126067;1098;101885;-78
2022/12/30 09:31:51;;;;;;;102.43;56.00;;;;;;;5.86;78.11;100975.86;125335;1099;104654;-81
2022/12/30 09:34:26;;;;;;;;;;;;;;;5.97;76.79;100969.67;125326;1099;104166;-79
2022/12/30 09:36:58;;;;;;;97.77;53.73;;;;;;;6.06;77.72;100967.63;124775;1099;104309;-81
2022/12/30 09:39:32;;;;;;;94.47;49.43;;;;;;;6.17;77.92;100959.55;125113;1099;102082;-79
2022/12/30 09:45:23;;;;;;;94.43;52.60;;;;;;;6.38;77.99;100936.50;126655;1099;102807;-80
2022/12/30 09:47:58;;;;;;;96.30;52.87;;;;;;;6.47;78.08;100921.41;126568;1099;102420;-81
2022/12/30 09:50:40;;;;;;;93.27;50.90;;;;;;;6.57;77.53;100915.02;126286;1099;101992;-80
2022/12/30 09:53:19;;;;;;;92.27;50.80;;;;;;;6.66;77.42;100921.66;126866;1099;101940;-80
2022/12/30 09:55:55;;;;;;;83.23;48.07;;;;;;;6.73;77.50;100916.80;126274;1099;102030;-80
2022/12/30 09:58:30;;;;;;;80.60;44.77;;;;;;;6.82;77.56;100905.20;126663;1099;103871;-80
2022/12/30 10:01:13;;;;;;;67.67;39.43;;;;;;;6.93;77.34;100894.46;126647;1098;102527;-80
2022/12/30 10:03:54;;;;;;;68.97;38.07;;;;;;;7.02;77.34;100887.16;126691;1099;102714;-81
2022/12/30 10:06:33;;;;;;;61.50;30.97;;;;;;;7.14;77.56;100886.95;126173;1099;102878;-80
2022/12/30 10:09:36;;;;;;;59.07;31.00;;;;;;;7.26;77.23;100894.55;126824;1099;101954;-80
2022/12/30 10:12:35;;;;;;;63.30;31.37;;;;;;;7.38;77.42;100895.22;126358;1099;103018;-80
2022/12/30 10:15:23;;;;;;;54.43;29.37;;;;;;;7.50;77.12;100895.89;124894;1099;103197;-79
2022/12/30 10:18:19;;;;;;;53.63;27.47;;;;;;;7.57;76.34;100902.34;124972;1099;104223;-82
2022/12/30 10:21:02;;;;;;;53.03;26.73;;;;;;;7.62;76.38;100895.67;125202;1099;104198;-82
2022/12/30 10:23:51;;;;;;;67.20;34.30;;;;;;;7.69;76.79;100889.94;126638;1098;102641;-81
2022/12/30 10:26:25;;;;;;;76.10;41.47;;;;;;;7.71;76.42;100880.50;126638;1098;102559;-77
2022/12/30 10:29:04;;;;;;;75.27;41.07;;;;;;;7.77;75.97;100892.08;126749;1098;102604;-78
2022/12/30 10:31:38;;;;;;;76.57;40.57;;;;;;;7.83;76.42;100900.24;126862;1099;101883;-78
2022/12/30 10:34:16;;;;;;;79.92;42.23;;;;;;;7.80;74.77;100897.47;126216;1099;101952;-79
2022/12/30 10:36:56;;;;;;;74.13;41.80;;;;;;;7.75;74.45;100907.67;126974;1098;101864;-78
2022/12/30 10:39:34;;;;;;;72.50;40.40;;;;;;;7.66;73.93;100905.45;126109;1099;102737;-79
2022/12/30 10:42:32;;;;;;;69.63;39.83;;;;;;;7.62;74.07;100907.81;126667;1098;102219;-80
2022/12/30 10:45:23;;;;;;;73.03;41.10;;;;;;;7.59;74.89;100894.59;126633;1099;102633;-81
2022/12/30 10:48:07;;;;;;;75.67;40.13;;;;;;;7.59;74.19;100899.81;125814;1099;101930;-79
2022/12/30 10:50:49;;;;;;;74.77;40.33;;;;;;;7.57;72.96;100902.34;126275;1099;102882;-81
2022/12/30 10:53:23;;;;;;;76.20;42.33;;;;;;;7.57;72.28;100910.17;124957;1099;103421;-78
2022/12/30 10:55:58;;;;;;;80.03;47.37;;;;;;;7.59;73.00;100911.17;125450;1099;102364;-77
2022/12/30 10:58:38;;;;;;;75.40;44.27;;;;;;;7.59;72.85;100915.48;125380;1099;104172;-79
2022/12/30 11:01:19;;;;;;;78.97;42.73;;;;;;;7.58;72.94;100914.59;125013;1099;102413;-79
2022/12/30 11:03:58;;;;;;;74.37;42.97;;;;;;;7.56;73.06;100911.02;125083;1102;102951;-80
2022/12/30 11:06:35;;;;;;;71.90;42.10;;;;;;;7.55;72.95;100909.20;125036;1102;103589;-80
2022/12/30 11:09:25;;;;;;;84.77;46.13;;;;;;;7.54;73.34;100907.39;125032;1100;104284;-78
2022/12/30 11:15:12;;;;;;;73.40;38.27;;;;;;;7.49;72.97;100904.53;124967;1102;104203;-79
2022/12/30 11:17:48;;;;;;;64.70;33.57;;;;;;;7.50;73.03;100908.06;124863;1102;104347;-78
2022/12/30 11:20:37;;;;;;;65.50;34.87;;;;;;;7.52;72.94;100914.25;124933;1099;104281;-78
2022/12/30 11:23:30;;;;;;;61.07;32.40;;;;;;;7.52;72.45;100914.25;125236;1099;104185;-80
2022/12/30 11:26:06;;;;;;;63.20;32.90;;;;;;;7.54;73.00;100913.54;124965;1099;102230;-80
2022/12/30 11:28:44;;;;;;;53.80;30.87;;;;;;;7.57;72.85;100910.17;124931;1099;104249;-80
2022/12/30 11:31:17;;;;;;;56.57;30.40;;;;;;;7.59;72.09;100918.09;125243;1099;102675;-81
2022/12/30 11:33:54;;;;;;;53.83;28.77;;;;;;;7.59;72.51;100915.48;125223;1099;104448;-79
2022/12/30 11:36:38;;;;;;;49.50;27.23;;;;;;;7.59;72.27;100907.64;124965;1102;102880;-79
2022/12/30 11:39:32;;;;;;;49.93;26.77;;;;;;;7.58;71.84;100903.26;124928;1099;104220;-80
2022/12/30 11:42:05;;;;;;;;;;;;;;;7.54;70.75;100897.87;125371;1099;102316;-80
2022/12/30 11:44:37;;;;;;;44.00;24.63;;;;;;;7.55;71.85;100899.64;124969;1099;104240;-79
2022/12/30 11:47:13;;;;;;;42.93;24.53;;;;;;;7.58;71.98;100898.92;125229;1099;103233;-80
2022/12/30 11:49:51;;;;;;;46.07;24.27;;;;;;;7.63;72.75;100891.34;125061;1099;104146;-78
2022/12/30 11:52:28;;;;;;;44.33;21.73;;;;;;;7.63;71.75;100896.56;124795;1099;102557;-78
2022/12/30 11:55:04;;;;;;;42.47;22.80;;;;;;;7.64;71.22;100893.14;125169;1099;102398;-79
2022/12/30 11:57:42;;;;;;;40.97;22.17;;;;;;;7.66;71.78;100897.61;125110;1099;102304;-79
2022/12/30 12:00:34;;;;;;;43.77;22.47;;;;;;;7.70;71.61;100896.09;125214;1099;104254;-78
2022/12/30 12:03:10;;;;;;;45.67;23.10;;;;;;;7.75;72.25;100902.44;125340;1099;104179;-78
2022/12/30 12:05:47;;;;;;;42.03;23.87;;;;;;;7.77;72.22;100900.80;125395;1099;104251;-78
2022/12/30 12:08:26;;;;;;;47.57;26.00;;;;;;;7.81;72.17;100894.94;125069;1099;103318;-80
2022/12/30 12:11:00;;;;;;;51.23;25.60;;;;;;;7.85;72.27;100894.30;124854;1102;104169;-80
2022/12/30 12:13:42;;;;;;;48.67;25.87;;;;;;;7.90;72.20;100895.42;124815;1102;104307;-80
2022/12/30 12:16:24;;;;;;;49.60;26.05;;;;;;;7.92;72.63;100895.50;125018;1099;104175;-78
2022/12/30 12:19:01;;;;;;;53.30;26.90;;;;;;;7.92;72.38;100885.94;125101;1099;102038;-80
2022/12/30 12:21:55;;;;;;;50.87;26.50;;;;;;;7.92;71.99;100883.33;125294;1099;102786;-81
2022/12/30 12:24:41;;;;;;;50.60;24.90;;;;;;;7.96;72.20;100888.71;125641;1099;103223;-80
2022/12/30 12:27:17;;;;;;;50.23;26.63;;;;;;;7.99;71.65;100891.48;125275;1099;102440;-82
2022/12/30 12:29:54;;;;;;;57.47;26.50;;;;;;;8.01;71.63;100893.38;125117;1099;102119;-79
2022/12/30 12:33:11;;;;;;;54.97;28.97;;;;;;;8.04;72.03;100890.92;124770;1099;104115;-79
2022/12/30 12:35:55;;;;;;;60.00;31.23;;;;;;;8.06;71.65;100894.50;124779;1102;104442;-80
2022/12/30 12:38:46;;;;;;;61.20;33.33;;;;;;;8.09;71.98;100899.00;124988;1098;104262;-80